sensor_id;sensor_type;location;lat;lon;timestamp;P1;durP1;ratioP1;P2;durP2;ratioP2
73632;SDS011;61927;50.080;14.418;2023-03-30T00:00:33;14.10;;;6.72;;
73632;SDS011;61927;50.080;14.418;2023-03-30T00:03:15;11.07;;;6.63;;
73632;SDS011;61927;50.080;14.418;2023-03-30T00:05:43;12.25;;;6.13;;
73632;SDS011;61927;50.080;14.418;2023-03-30T00:08:11;11.48;;;6.28;;
73632;SDS011;61927;50.080;14.418;2023-03-30T00:10:39;11.63;;;6.90;;
73632;SDS011;61927;50.080;14.418;2023-03-30T00:13:05;10.57;;;6.65;;
73632;SDS011;61927;50.080;14.418;2023-03-30T00:15:32;9.38;;;6.50;;
73632;SDS011;61927;50.080;14.418;2023-03-30T00:17:58;12.90;;;6.65;;
73632;SDS011;61927;50.080;14.418;2023-03-30T00:20:26;14.52;;;7.00;;
73632;SDS011;61927;50.080;14.418;2023-03-30T00:22:52;11.15;;;6.25;;
73632;SDS011;61927;50.080;14.418;2023-03-30T00:25:17;13.88;;;6.60;;
73632;SDS011;61927;50.080;14.418;2023-03-30T00:27:43;11.80;;;6.70;;
73632;SDS011;61927;50.080;14.418;2023-03-30T00:30:10;17.08;;;7.35;;
73632;SDS011;61927;50.080;14.418;2023-03-30T00:32:38;10.25;;;6.90;;
73632;SDS011;61927;50.080;14.418;2023-03-30T00:35:04;13.18;;;6.55;;
73632;SDS011;61927;50.080;14.418;2023-03-30T00:37:30;9.27;;;6.32;;
73632;SDS011;61927;50.080;14.418;2023-03-30T00:39:56;9.73;;;6.45;;
73632;SDS011;61927;50.080;14.418;2023-03-30T00:42:22;13.32;;;7.13;;
73632;SDS011;61927;50.080;14.418;2023-03-30T00:50:00;12.70;;;6.32;;
73632;SDS011;61927;50.080;14.418;2023-03-30T00:52:26;17.80;;;7.43;;
73632;SDS011;61927;50.080;14.418;2023-03-30T00:54:52;13.52;;;7.07;;
73632;SDS011;61927;50.080;14.418;2023-03-30T00:57:21;11.43;;;6.95;;
73632;SDS011;61927;50.080;14.418;2023-03-30T00:59:50;13.48;;;7.68;;
73632;SDS011;61927;50.080;14.418;2023-03-30T01:02:19;10.57;;;7.30;;
73632;SDS011;61927;50.080;14.418;2023-03-30T01:04:46;11.15;;;7.22;;
73632;SDS011;61927;50.080;14.418;2023-03-30T01:07:15;14.13;;;6.90;;
73632;SDS011;61927;50.080;14.418;2023-03-30T01:09:41;12.70;;;6.78;;
73632;SDS011;61927;50.080;14.418;2023-03-30T01:12:08;11.93;;;6.60;;
73632;SDS011;61927;50.080;14.418;2023-03-30T01:14:34;9.55;;;6.72;;
73632;SDS011;61927;50.080;14.418;2023-03-30T01:17:03;14.10;;;6.80;;
73632;SDS011;61927;50.080;14.418;2023-03-30T01:22:44;15.63;;;6.93;;
73632;SDS011;61927;50.080;14.418;2023-03-30T01:25:40;15.88;;;6.68;;
73632;SDS011;61927;50.080;14.418;2023-03-30T01:33:47;8.13;;;5.75;;
73632;SDS011;61927;50.080;14.418;2023-03-30T01:39:27;14.45;;;6.65;;
73632;SDS011;61927;50.080;14.418;2023-03-30T01:47:49;11.13;;;5.22;;
73632;SDS011;61927;50.080;14.418;2023-03-30T01:55:40;11.77;;;6.10;;
73632;SDS011;61927;50.080;14.418;2023-03-30T02:00:51;11.02;;;5.68;;
73632;SDS011;61927;50.080;14.418;2023-03-30T02:03:27;11.98;;;6.22;;
73632;SDS011;61927;50.080;14.418;2023-03-30T02:05:58;8.05;;;5.53;;
73632;SDS011;61927;50.080;14.418;2023-03-30T02:08:34;10.00;;;5.65;;
73632;SDS011;61927;50.080;14.418;2023-03-30T02:11:02;11.02;;;5.70;;
73632;SDS011;61927;50.080;14.418;2023-03-30T02:13:29;12.70;;;5.93;;
73632;SDS011;61927;50.080;14.418;2023-03-30T02:15:58;11.85;;;6.22;;
73632;SDS011;61927;50.080;14.418;2023-03-30T02:18:27;7.75;;;5.15;;
73632;SDS011;61927;50.080;14.418;2023-03-30T02:20:53;11.75;;;5.75;;
73632;SDS011;61927;50.080;14.418;2023-03-30T02:23:22;9.60;;;5.57;;
73632;SDS011;61927;50.080;14.418;2023-03-30T02:25:55;9.35;;;5.80;;
73632;SDS011;61927;50.080;14.418;2023-03-30T02:28:21;8.40;;;5.60;;
73632;SDS011;61927;50.080;14.418;2023-03-30T02:30:47;6.63;;;5.68;;
73632;SDS011;61927;50.080;14.418;2023-03-30T02:39:28;8.63;;;5.22;;
73632;SDS011;61927;50.080;14.418;2023-03-30T02:45:13;6.55;;;4.85;;
73632;SDS011;61927;50.080;14.418;2023-03-30T02:50:33;6.65;;;5.05;;
73632;SDS011;61927;50.080;14.418;2023-03-30T03:04:02;7.57;;;5.00;;
73632;SDS011;61927;50.080;14.418;2023-03-30T03:06:30;8.07;;;4.95;;
73632;SDS011;61927;50.080;14.418;2023-03-30T03:08:58;7.20;;;5.38;;
73632;SDS011;61927;50.080;14.418;2023-03-30T03:11:24;7.13;;;4.95;;
73632;SDS011;61927;50.080;14.418;2023-03-30T03:13:51;10.07;;;6.22;;
73632;SDS011;61927;50.080;14.418;2023-03-30T03:16:17;9.10;;;5.20;;
73632;SDS011;61927;50.080;14.418;2023-03-30T03:18:43;7.63;;;4.88;;
73632;SDS011;61927;50.080;14.418;2023-03-30T03:21:09;7.85;;;5.43;;
73632;SDS011;61927;50.080;14.418;2023-03-30T03:23:38;13.68;;;5.35;;
73632;SDS011;61927;50.080;14.418;2023-03-30T03:26:05;8.93;;;5.22;;
73632;SDS011;61927;50.080;14.418;2023-03-30T03:28:32;9.88;;;5.65;;
73632;SDS011;61927;50.080;14.418;2023-03-30T03:30:58;11.10;;;5.68;;
73632;SDS011;61927;50.080;14.418;2023-03-30T03:33:24;7.85;;;5.43;;
73632;SDS011;61927;50.080;14.418;2023-03-30T03:35:51;8.95;;;5.53;;
73632;SDS011;61927;50.080;14.418;2023-03-30T03:38:23;7.43;;;5.63;;
73632;SDS011;61927;50.080;14.418;2023-03-30T03:40:52;9.55;;;5.30;;
73632;SDS011;61927;50.080;14.418;2023-03-30T03:43:19;8.07;;;5.55;;
73632;SDS011;61927;50.080;14.418;2023-03-30T03:45:45;9.77;;;5.95;;
73632;SDS011;61927;50.080;14.418;2023-03-30T03:48:12;7.78;;;5.82;;
73632;SDS011;61927;50.080;14.418;2023-03-30T03:50:38;7.35;;;5.70;;
73632;SDS011;61927;50.080;14.418;2023-03-30T03:53:04;11.20;;;5.68;;
73632;SDS011;61927;50.080;14.418;2023-03-30T03:55:29;6.47;;;4.95;;
73632;SDS011;61927;50.080;14.418;2023-03-30T03:57:59;9.65;;;5.20;;
73632;SDS011;61927;50.080;14.418;2023-03-30T04:00:24;6.65;;;5.20;;
73632;SDS011;61927;50.080;14.418;2023-03-30T04:02:51;8.32;;;5.20;;
73632;SDS011;61927;50.080;14.418;2023-03-30T04:05:16;6.13;;;4.60;;
73632;SDS011;61927;50.080;14.418;2023-03-30T04:07:42;8.27;;;5.22;;
73632;SDS011;61927;50.080;14.418;2023-03-30T04:10:10;7.95;;;4.65;;
73632;SDS011;61927;50.080;14.418;2023-03-30T04:12:37;9.00;;;5.63;;
73632;SDS011;61927;50.080;14.418;2023-03-30T04:15:03;10.82;;;5.53;;
73632;SDS011;61927;50.080;14.418;2023-03-30T04:17:30;6.75;;;5.45;;
73632;SDS011;61927;50.080;14.418;2023-03-30T04:20:02;9.85;;;5.70;;
73632;SDS011;61927;50.080;14.418;2023-03-30T04:22:29;10.93;;;5.70;;
73632;SDS011;61927;50.080;14.418;2023-03-30T04:25:00;14.20;;;5.78;;
73632;SDS011;61927;50.080;14.418;2023-03-30T04:27:25;8.55;;;5.88;;
73632;SDS011;61927;50.080;14.418;2023-03-30T04:29:55;9.60;;;5.90;;
73632;SDS011;61927;50.080;14.418;2023-03-30T04:32:22;10.60;;;6.05;;
73632;SDS011;61927;50.080;14.418;2023-03-30T04:34:48;11.88;;;6.43;;
73632;SDS011;61927;50.080;14.418;2023-03-30T04:37:19;11.75;;;6.82;;
73632;SDS011;61927;50.080;14.418;2023-03-30T04:40:00;10.73;;;5.70;;
73632;SDS011;61927;50.080;14.418;2023-03-30T04:42:31;11.32;;;6.05;;
73632;SDS011;61927;50.080;14.418;2023-03-30T04:45:01;10.20;;;6.20;;
73632;SDS011;61927;50.080;14.418;2023-03-30T04:47:28;11.10;;;5.78;;
73632;SDS011;61927;50.080;14.418;2023-03-30T04:49:54;11.35;;;6.10;;
73632;SDS011;61927;50.080;14.418;2023-03-30T04:52:20;10.65;;;6.10;;
73632;SDS011;61927;50.080;14.418;2023-03-30T04:54:46;9.98;;;6.22;;
73632;SDS011;61927;50.080;14.418;2023-03-30T04:57:12;7.18;;;5.53;;
73632;SDS011;61927;50.080;14.418;2023-03-30T04:59:39;13.57;;;7.35;;
73632;SDS011;61927;50.080;14.418;2023-03-30T05:02:06;11.50;;;6.65;;
73632;SDS011;61927;50.080;14.418;2023-03-30T05:04:31;9.05;;;6.07;;
73632;SDS011;61927;50.080;14.418;2023-03-30T05:06:57;8.73;;;5.80;;
73632;SDS011;61927;50.080;14.418;2023-03-30T05:09:22;9.32;;;5.97;;
73632;SDS011;61927;50.080;14.418;2023-03-30T05:11:48;12.40;;;6.55;;
73632;SDS011;61927;50.080;14.418;2023-03-30T05:14:14;7.32;;;5.55;;
73632;SDS011;61927;50.080;14.418;2023-03-30T05:16:40;18.42;;;7.22;;
73632;SDS011;61927;50.080;14.418;2023-03-30T05:19:06;10.85;;;6.43;;
73632;SDS011;61927;50.080;14.418;2023-03-30T05:21:32;10.00;;;6.15;;
73632;SDS011;61927;50.080;14.418;2023-03-30T05:23:58;7.65;;;5.68;;
73632;SDS011;61927;50.080;14.418;2023-03-30T05:26:24;14.63;;;6.03;;
73632;SDS011;61927;50.080;14.418;2023-03-30T05:28:50;11.85;;;6.03;;
73632;SDS011;61927;50.080;14.418;2023-03-30T05:31:17;8.70;;;6.15;;
73632;SDS011;61927;50.080;14.418;2023-03-30T05:33:43;12.43;;;6.80;;
73632;SDS011;61927;50.080;14.418;2023-03-30T05:36:09;17.38;;;5.72;;
73632;SDS011;61927;50.080;14.418;2023-03-30T05:38:35;13.57;;;5.43;;
73632;SDS011;61927;50.080;14.418;2023-03-30T05:41:01;10.43;;;5.82;;
73632;SDS011;61927;50.080;14.418;2023-03-30T05:43:29;10.80;;;5.63;;
73632;SDS011;61927;50.080;14.418;2023-03-30T05:45:56;8.70;;;5.05;;
73632;SDS011;61927;50.080;14.418;2023-03-30T05:48:21;9.10;;;5.90;;
73632;SDS011;61927;50.080;14.418;2023-03-30T05:50:47;14.85;;;5.97;;
73632;SDS011;61927;50.080;14.418;2023-03-30T05:53:13;11.27;;;5.55;;
73632;SDS011;61927;50.080;14.418;2023-03-30T05:55:39;9.35;;;5.63;;
73632;SDS011;61927;50.080;14.418;2023-03-30T05:58:07;11.65;;;5.88;;
73632;SDS011;61927;50.080;14.418;2023-03-30T06:00:33;16.30;;;5.90;;
73632;SDS011;61927;50.080;14.418;2023-03-30T06:03:00;11.65;;;5.53;;
73632;SDS011;61927;50.080;14.418;2023-03-30T06:05:26;12.93;;;6.90;;
73632;SDS011;61927;50.080;14.418;2023-03-30T06:07:52;12.25;;;5.47;;
73632;SDS011;61927;50.080;14.418;2023-03-30T06:10:21;13.55;;;5.35;;
73632;SDS011;61927;50.080;14.418;2023-03-30T06:12:47;7.65;;;5.18;;
73632;SDS011;61927;50.080;14.418;2023-03-30T06:15:13;10.77;;;5.15;;
73632;SDS011;61927;50.080;14.418;2023-03-30T06:17:38;7.68;;;4.97;;
73632;SDS011;61927;50.080;14.418;2023-03-30T06:20:04;11.38;;;6.28;;
73632;SDS011;61927;50.080;14.418;2023-03-30T06:22:34;15.75;;;8.13;;
73632;SDS011;61927;50.080;14.418;2023-03-30T06:24:59;15.07;;;6.45;;
73632;SDS011;61927;50.080;14.418;2023-03-30T06:27:25;9.05;;;6.00;;
73632;SDS011;61927;50.080;14.418;2023-03-30T06:29:51;15.85;;;6.53;;
73632;SDS011;61927;50.080;14.418;2023-03-30T06:32:17;12.55;;;5.82;;
73632;SDS011;61927;50.080;14.418;2023-03-30T06:34:43;11.60;;;5.65;;
73632;SDS011;61927;50.080;14.418;2023-03-30T06:37:08;6.50;;;5.55;;
73632;SDS011;61927;50.080;14.418;2023-03-30T06:39:34;15.10;;;6.18;;
73632;SDS011;61927;50.080;14.418;2023-03-30T06:42:03;10.15;;;5.47;;
73632;SDS011;61927;50.080;14.418;2023-03-30T06:44:30;19.73;;;5.53;;
73632;SDS011;61927;50.080;14.418;2023-03-30T06:46:55;21.35;;;6.55;;
73632;SDS011;61927;50.080;14.418;2023-03-30T06:49:21;16.63;;;6.63;;
73632;SDS011;61927;50.080;14.418;2023-03-30T06:51:47;8.90;;;5.60;;
73632;SDS011;61927;50.080;14.418;2023-03-30T06:54:12;12.93;;;6.88;;
73632;SDS011;61927;50.080;14.418;2023-03-30T06:56:38;6.60;;;5.20;;
73632;SDS011;61927;50.080;14.418;2023-03-30T06:59:04;16.52;;;5.55;;
73632;SDS011;61927;50.080;14.418;2023-03-30T07:01:29;10.32;;;5.30;;
73632;SDS011;61927;50.080;14.418;2023-03-30T07:03:55;9.52;;;5.85;;
73632;SDS011;61927;50.080;14.418;2023-03-30T07:06:21;9.40;;;5.75;;
73632;SDS011;61927;50.080;14.418;2023-03-30T07:08:48;15.95;;;9.55;;
73632;SDS011;61927;50.080;14.418;2023-03-30T07:11:14;17.98;;;5.90;;
73632;SDS011;61927;50.080;14.418;2023-03-30T07:13:39;8.48;;;5.78;;
73632;SDS011;61927;50.080;14.418;2023-03-30T07:16:05;14.75;;;7.28;;
73632;SDS011;61927;50.080;14.418;2023-03-30T07:18:32;21.75;;;13.52;;
73632;SDS011;61927;50.080;14.418;2023-03-30T07:20:57;12.90;;;5.93;;
73632;SDS011;61927;50.080;14.418;2023-03-30T07:23:23;22.27;;;6.47;;
73632;SDS011;61927;50.080;14.418;2023-03-30T07:25:50;17.50;;;6.53;;
73632;SDS011;61927;50.080;14.418;2023-03-30T07:28:17;18.10;;;5.90;;
73632;SDS011;61927;50.080;14.418;2023-03-30T07:30:42;14.55;;;6.40;;
73632;SDS011;61927;50.080;14.418;2023-03-30T07:33:08;14.38;;;6.30;;
73632;SDS011;61927;50.080;14.418;2023-03-30T07:35:34;15.98;;;7.03;;
73632;SDS011;61927;50.080;14.418;2023-03-30T07:37:59;15.38;;;6.75;;
73632;SDS011;61927;50.080;14.418;2023-03-30T07:40:25;14.60;;;6.15;;
73632;SDS011;61927;50.080;14.418;2023-03-30T07:42:51;9.88;;;6.53;;
73632;SDS011;61927;50.080;14.418;2023-03-30T07:45:17;12.95;;;7.35;;
73632;SDS011;61927;50.080;14.418;2023-03-30T07:47:42;10.48;;;5.63;;
73632;SDS011;61927;50.080;14.418;2023-03-30T07:50:08;11.80;;;5.68;;
73632;SDS011;61927;50.080;14.418;2023-03-30T07:52:34;12.27;;;6.32;;
73632;SDS011;61927;50.080;14.418;2023-03-30T07:54:59;13.07;;;5.63;;
73632;SDS011;61927;50.080;14.418;2023-03-30T07:57:25;8.52;;;5.70;;
73632;SDS011;61927;50.080;14.418;2023-03-30T07:59:51;20.95;;;6.45;;
73632;SDS011;61927;50.080;14.418;2023-03-30T08:02:16;18.85;;;6.53;;
73632;SDS011;61927;50.080;14.418;2023-03-30T08:04:43;12.30;;;7.53;;
73632;SDS011;61927;50.080;14.418;2023-03-30T08:07:10;14.70;;;7.85;;
73632;SDS011;61927;50.080;14.418;2023-03-30T08:09:36;29.20;;;7.95;;
73632;SDS011;61927;50.080;14.418;2023-03-30T08:12:02;26.77;;;7.63;;
73632;SDS011;61927;50.080;14.418;2023-03-30T08:14:28;30.52;;;10.13;;
73632;SDS011;61927;50.080;14.418;2023-03-30T08:16:53;23.85;;;7.30;;
73632;SDS011;61927;50.080;14.418;2023-03-30T08:19:20;17.52;;;5.95;;
73632;SDS011;61927;50.080;14.418;2023-03-30T08:21:47;18.08;;;6.90;;
73632;SDS011;61927;50.080;14.418;2023-03-30T08:24:13;26.65;;;5.85;;
73632;SDS011;61927;50.080;14.418;2023-03-30T08:26:38;15.55;;;5.18;;
73632;SDS011;61927;50.080;14.418;2023-03-30T08:29:04;7.65;;;4.95;;
73632;SDS011;61927;50.080;14.418;2023-03-30T08:31:31;14.80;;;5.03;;
73632;SDS011;61927;50.080;14.418;2023-03-30T08:33:57;20.17;;;5.93;;
73632;SDS011;61927;50.080;14.418;2023-03-30T08:36:23;22.20;;;5.30;;
73632;SDS011;61927;50.080;14.418;2023-03-30T08:38:49;15.05;;;5.40;;
73632;SDS011;61927;50.080;14.418;2023-03-30T08:41:24;12.65;;;5.53;;
73632;SDS011;61927;50.080;14.418;2023-03-30T08:46:42;11.70;;;4.60;;
73632;SDS011;61927;50.080;14.418;2023-03-30T08:49:11;17.10;;;5.25;;
73632;SDS011;61927;50.080;14.418;2023-03-30T08:51:40;19.95;;;5.28;;
73632;SDS011;61927;50.080;14.418;2023-03-30T08:54:12;18.17;;;4.53;;
73632;SDS011;61927;50.080;14.418;2023-03-30T08:59:51;14.20;;;4.90;;
73632;SDS011;61927;50.080;14.418;2023-03-30T09:02:39;17.55;;;5.00;;
73632;SDS011;61927;50.080;14.418;2023-03-30T09:05:15;23.25;;;4.82;;
73632;SDS011;61927;50.080;14.418;2023-03-30T09:07:54;14.00;;;5.03;;
73632;SDS011;61927;50.080;14.418;2023-03-30T09:10:42;14.93;;;5.13;;
73632;SDS011;61927;50.080;14.418;2023-03-30T09:13:13;14.35;;;4.88;;
73632;SDS011;61927;50.080;14.418;2023-03-30T09:15:51;14.27;;;5.68;;
73632;SDS011;61927;50.080;14.418;2023-03-30T09:21:00;12.95;;;5.20;;
73632;SDS011;61927;50.080;14.418;2023-03-30T09:23:28;15.15;;;5.55;;
73632;SDS011;61927;50.080;14.418;2023-03-30T09:31:32;14.43;;;5.55;;
73632;SDS011;61927;50.080;14.418;2023-03-30T09:34:26;20.73;;;5.28;;
73632;SDS011;61927;50.080;14.418;2023-03-30T09:36:55;20.15;;;5.20;;
73632;SDS011;61927;50.080;14.418;2023-03-30T09:39:24;11.25;;;5.47;;
73632;SDS011;61927;50.080;14.418;2023-03-30T09:41:54;14.77;;;5.68;;
73632;SDS011;61927;50.080;14.418;2023-03-30T09:45:06;14.07;;;5.63;;
73632;SDS011;61927;50.080;14.418;2023-03-30T09:47:35;17.52;;;5.22;;
73632;SDS011;61927;50.080;14.418;2023-03-30T09:50:04;23.02;;;6.40;;
73632;SDS011;61927;50.080;14.418;2023-03-30T09:52:37;15.48;;;5.55;;
73632;SDS011;61927;50.080;14.418;2023-03-30T09:57:43;15.95;;;5.85;;
73632;SDS011;61927;50.080;14.418;2023-03-30T10:02:55;19.08;;;5.97;;
73632;SDS011;61927;50.080;14.418;2023-03-30T10:05:23;18.38;;;6.82;;
73632;SDS011;61927;50.080;14.418;2023-03-30T10:07:57;21.55;;;6.78;;
73632;SDS011;61927;50.080;14.418;2023-03-30T10:12:54;16.10;;;6.43;;
73632;SDS011;61927;50.080;14.418;2023-03-30T10:15:22;31.33;;;14.50;;
73632;SDS011;61927;50.080;14.418;2023-03-30T10:17:52;17.27;;;7.13;;
73632;SDS011;61927;50.080;14.418;2023-03-30T10:20:27;20.75;;;6.57;;
73632;SDS011;61927;50.080;14.418;2023-03-30T10:23:03;28.95;;;8.98;;
73632;SDS011;61927;50.080;14.418;2023-03-30T10:25:36;19.83;;;6.72;;
73632;SDS011;61927;50.080;14.418;2023-03-30T10:28:12;19.02;;;6.95;;
73632;SDS011;61927;50.080;14.418;2023-03-30T10:30:47;18.73;;;7.40;;
73632;SDS011;61927;50.080;14.418;2023-03-30T10:35:40;23.40;;;7.40;;
73632;SDS011;61927;50.080;14.418;2023-03-30T10:38:06;14.00;;;6.00;;
73632;SDS011;61927;50.080;14.418;2023-03-30T10:40:36;15.57;;;5.43;;
73632;SDS011;61927;50.080;14.418;2023-03-30T10:43:09;16.08;;;6.53;;
73632;SDS011;61927;50.080;14.418;2023-03-30T10:45:48;24.42;;;5.82;;
73632;SDS011;61927;50.080;14.418;2023-03-30T10:48:21;29.05;;;6.00;;
73632;SDS011;61927;50.080;14.418;2023-03-30T10:51:00;25.33;;;7.10;;
73632;SDS011;61927;50.080;14.418;2023-03-30T11:01:53;11.45;;;4.05;;
73632;SDS011;61927;50.080;14.418;2023-03-30T11:04:57;11.50;;;3.80;;
73632;SDS011;61927;50.080;14.418;2023-03-30T11:12:38;12.18;;;3.78;;
73632;SDS011;61927;50.080;14.418;2023-03-30T11:15:41;17.45;;;4.55;;
73632;SDS011;61927;50.080;14.418;2023-03-30T11:21:00;12.52;;;3.67;;
73632;SDS011;61927;50.080;14.418;2023-03-30T11:26:42;15.13;;;6.20;;
73632;SDS011;61927;50.080;14.418;2023-03-30T11:37:51;14.00;;;5.95;;
73632;SDS011;61927;50.080;14.418;2023-03-30T11:40:24;15.02;;;4.70;;
73632;SDS011;61927;50.080;14.418;2023-03-30T11:42:52;15.98;;;6.03;;
73632;SDS011;61927;50.080;14.418;2023-03-30T11:50:42;24.42;;;11.45;;
73632;SDS011;61927;50.080;14.418;2023-03-30T11:56:12;20.42;;;6.45;;
73632;SDS011;61927;50.080;14.418;2023-03-30T11:59:03;14.07;;;5.18;;
73632;SDS011;61927;50.080;14.418;2023-03-30T12:01:42;25.45;;;6.32;;
73632;SDS011;61927;50.080;14.418;2023-03-30T12:04:19;16.98;;;6.80;;
73632;SDS011;61927;50.080;14.418;2023-03-30T12:06:56;14.57;;;6.28;;
73632;SDS011;61927;50.080;14.418;2023-03-30T12:09:31;13.25;;;5.68;;
73632;SDS011;61927;50.080;14.418;2023-03-30T12:12:04;16.77;;;5.35;;
73632;SDS011;61927;50.080;14.418;2023-03-30T12:14:43;20.38;;;5.75;;
73632;SDS011;61927;50.080;14.418;2023-03-30T12:31:51;16.92;;;8.10;;
73632;SDS011;61927;50.080;14.418;2023-03-30T12:34:34;13.88;;;5.45;;
73632;SDS011;61927;50.080;14.418;2023-03-30T12:37:05;13.00;;;6.20;;
73632;SDS011;61927;50.080;14.418;2023-03-30T12:39:41;9.20;;;4.00;;
73632;SDS011;61927;50.080;14.418;2023-03-30T12:42:18;11.00;;;3.72;;
73632;SDS011;61927;50.080;14.418;2023-03-30T12:56:27;10.85;;;4.47;;
73632;SDS011;61927;50.080;14.418;2023-03-30T13:04:48;7.28;;;3.13;;
73632;SDS011;61927;50.080;14.418;2023-03-30T13:07:16;6.80;;;3.28;;
73632;SDS011;61927;50.080;14.418;2023-03-30T13:09:51;14.07;;;4.03;;
73632;SDS011;61927;50.080;14.418;2023-03-30T13:12:26;11.85;;;3.75;;
73632;SDS011;61927;50.080;14.418;2023-03-30T13:17:47;6.22;;;2.90;;
73632;SDS011;61927;50.080;14.418;2023-03-30T13:20:19;5.53;;;2.92;;
73632;SDS011;61927;50.080;14.418;2023-03-30T13:23:36;7.63;;;3.55;;
73632;SDS011;61927;50.080;14.418;2023-03-30T13:33:48;6.05;;;3.10;;
73632;SDS011;61927;50.080;14.418;2023-03-30T13:36:28;9.18;;;2.80;;
73632;SDS011;61927;50.080;14.418;2023-03-30T13:52:15;5.72;;;3.75;;
73632;SDS011;61927;50.080;14.418;2023-03-30T13:54:48;11.45;;;3.92;;
73632;SDS011;61927;50.080;14.418;2023-03-30T13:57:21;6.75;;;3.65;;
73632;SDS011;61927;50.080;14.418;2023-03-30T13:59:58;7.82;;;3.67;;
73632;SDS011;61927;50.080;14.418;2023-03-30T14:02:29;10.95;;;3.92;;
73632;SDS011;61927;50.080;14.418;2023-03-30T14:05:09;11.55;;;3.60;;
73632;SDS011;61927;50.080;14.418;2023-03-30T14:07:41;11.15;;;4.10;;
73632;SDS011;61927;50.080;14.418;2023-03-30T14:10:18;16.93;;;6.27;;
73632;SDS011;61927;50.080;14.418;2023-03-30T14:12:46;8.27;;;4.57;;
73632;SDS011;61927;50.080;14.418;2023-03-30T14:17:45;16.05;;;5.90;;
73632;SDS011;61927;50.080;14.418;2023-03-30T14:22:47;12.77;;;5.32;;
73632;SDS011;61927;50.080;14.418;2023-03-30T14:25:23;13.93;;;5.00;;
73632;SDS011;61927;50.080;14.418;2023-03-30T14:27:51;11.85;;;4.63;;
73632;SDS011;61927;50.080;14.418;2023-03-30T14:30:19;9.43;;;4.75;;
73632;SDS011;61927;50.080;14.418;2023-03-30T14:32:46;19.90;;;13.55;;
73632;SDS011;61927;50.080;14.418;2023-03-30T14:35:15;9.00;;;3.72;;
73632;SDS011;61927;50.080;14.418;2023-03-30T14:38:00;6.60;;;3.22;;
73632;SDS011;61927;50.080;14.418;2023-03-30T14:40:26;6.57;;;3.10;;
73632;SDS011;61927;50.080;14.418;2023-03-30T14:42:52;7.15;;;3.28;;
73632;SDS011;61927;50.080;14.418;2023-03-30T14:45:18;4.25;;;2.95;;
73632;SDS011;61927;50.080;14.418;2023-03-30T14:47:46;6.10;;;3.10;;
73632;SDS011;61927;50.080;14.418;2023-03-30T14:50:14;8.88;;;3.30;;
73632;SDS011;61927;50.080;14.418;2023-03-30T14:52:41;10.40;;;3.42;;
73632;SDS011;61927;50.080;14.418;2023-03-30T14:55:11;7.40;;;4.13;;
73632;SDS011;61927;50.080;14.418;2023-03-30T14:57:44;7.53;;;3.83;;
73632;SDS011;61927;50.080;14.418;2023-03-30T15:00:12;7.25;;;2.90;;
73632;SDS011;61927;50.080;14.418;2023-03-30T15:02:44;7.32;;;2.80;;
73632;SDS011;61927;50.080;14.418;2023-03-30T15:05:14;6.15;;;2.70;;
73632;SDS011;61927;50.080;14.418;2023-03-30T15:07:42;6.97;;;3.50;;
73632;SDS011;61927;50.080;14.418;2023-03-30T15:12:49;4.57;;;2.10;;
73632;SDS011;61927;50.080;14.418;2023-03-30T15:15:17;10.57;;;2.55;;
73632;SDS011;61927;50.080;14.418;2023-03-30T15:17:48;2.95;;;2.10;;
73632;SDS011;61927;50.080;14.418;2023-03-30T15:20:15;6.43;;;2.08;;
73632;SDS011;61927;50.080;14.418;2023-03-30T15:22:43;7.95;;;3.03;;
73632;SDS011;61927;50.080;14.418;2023-03-30T15:25:12;3.83;;;1.60;;
73632;SDS011;61927;50.080;14.418;2023-03-30T15:27:41;3.88;;;1.77;;
73632;SDS011;61927;50.080;14.418;2023-03-30T15:30:30;3.63;;;1.88;;
73632;SDS011;61927;50.080;14.418;2023-03-30T15:33:01;2.65;;;2.25;;
73632;SDS011;61927;50.080;14.418;2023-03-30T15:35:30;3.67;;;2.38;;
73632;SDS011;61927;50.080;14.418;2023-03-30T15:37:58;6.47;;;2.85;;
73632;SDS011;61927;50.080;14.418;2023-03-30T15:40:37;7.05;;;2.78;;
73632;SDS011;61927;50.080;14.418;2023-03-30T15:43:15;7.07;;;2.50;;
73632;SDS011;61927;50.080;14.418;2023-03-30T15:45:51;6.03;;;3.08;;
73632;SDS011;61927;50.080;14.418;2023-03-30T15:48:24;7.10;;;3.67;;
73632;SDS011;61927;50.080;14.418;2023-03-30T15:51:12;9.38;;;5.60;;
73632;SDS011;61927;50.080;14.418;2023-03-30T15:53:54;5.50;;;2.42;;
73632;SDS011;61927;50.080;14.418;2023-03-30T15:56:26;12.15;;;3.33;;
73632;SDS011;61927;50.080;14.418;2023-03-30T15:58:57;12.88;;;2.83;;
73632;SDS011;61927;50.080;14.418;2023-03-30T16:01:26;8.40;;;2.88;;
73632;SDS011;61927;50.080;14.418;2023-03-30T16:04:04;8.55;;;3.38;;
73632;SDS011;61927;50.080;14.418;2023-03-30T16:06:31;5.07;;;2.20;;
73632;SDS011;61927;50.080;14.418;2023-03-30T16:08:57;6.70;;;2.75;;
73632;SDS011;61927;50.080;14.418;2023-03-30T16:11:22;6.75;;;2.13;;
73632;SDS011;61927;50.080;14.418;2023-03-30T16:13:48;6.07;;;2.60;;
73632;SDS011;61927;50.080;14.418;2023-03-30T16:16:17;3.75;;;2.15;;
73632;SDS011;61927;50.080;14.418;2023-03-30T16:18:42;6.40;;;2.30;;
73632;SDS011;61927;50.080;14.418;2023-03-30T16:21:09;6.18;;;2.55;;
73632;SDS011;61927;50.080;14.418;2023-03-30T16:23:35;14.95;;;5.93;;
73632;SDS011;61927;50.080;14.418;2023-03-30T16:26:02;5.32;;;2.38;;
73632;SDS011;61927;50.080;14.418;2023-03-30T16:28:28;9.40;;;2.53;;
73632;SDS011;61927;50.080;14.418;2023-03-30T16:30:54;17.20;;;6.15;;
73632;SDS011;61927;50.080;14.418;2023-03-30T16:33:25;8.85;;;2.80;;
73632;SDS011;61927;50.080;14.418;2023-03-30T16:35:50;7.90;;;2.67;;
73632;SDS011;61927;50.080;14.418;2023-03-30T16:38:16;7.50;;;2.45;;
73632;SDS011;61927;50.080;14.418;2023-03-30T16:40:43;6.80;;;2.67;;
73632;SDS011;61927;50.080;14.418;2023-03-30T16:43:10;12.93;;;3.88;;
73632;SDS011;61927;50.080;14.418;2023-03-30T16:45:36;8.75;;;2.80;;
73632;SDS011;61927;50.080;14.418;2023-03-30T16:48:01;10.98;;;3.97;;
73632;SDS011;61927;50.080;14.418;2023-03-30T16:50:40;8.70;;;3.42;;
73632;SDS011;61927;50.080;14.418;2023-03-30T16:53:08;12.93;;;4.25;;
73632;SDS011;61927;50.080;14.418;2023-03-30T16:55:34;9.65;;;2.70;;
73632;SDS011;61927;50.080;14.418;2023-03-30T16:58:01;7.95;;;3.70;;
73632;SDS011;61927;50.080;14.418;2023-03-30T17:00:28;18.20;;;4.70;;
73632;SDS011;61927;50.080;14.418;2023-03-30T17:02:56;9.23;;;4.45;;
73632;SDS011;61927;50.080;14.418;2023-03-30T17:05:22;12.25;;;4.10;;
73632;SDS011;61927;50.080;14.418;2023-03-30T17:07:48;16.20;;;4.50;;
73632;SDS011;61927;50.080;14.418;2023-03-30T17:12:55;9.68;;;3.53;;
73632;SDS011;61927;50.080;14.418;2023-03-30T17:15:21;8.57;;;2.80;;
73632;SDS011;61927;50.080;14.418;2023-03-30T17:17:48;13.57;;;3.08;;
73632;SDS011;61927;50.080;14.418;2023-03-30T17:20:26;8.48;;;3.42;;
73632;SDS011;61927;50.080;14.418;2023-03-30T17:22:56;8.20;;;2.92;;
73632;SDS011;61927;50.080;14.418;2023-03-30T17:25:22;15.57;;;3.63;;
73632;SDS011;61927;50.080;14.418;2023-03-30T17:27:50;8.23;;;3.90;;
73632;SDS011;61927;50.080;14.418;2023-03-30T17:30:21;10.43;;;4.80;;
73632;SDS011;61927;50.080;14.418;2023-03-30T17:32:58;8.77;;;2.28;;
73632;SDS011;61927;50.080;14.418;2023-03-30T17:35:24;9.65;;;1.02;;
73632;SDS011;61927;50.080;14.418;2023-03-30T17:37:51;6.18;;;0.50;;
73632;SDS011;61927;50.080;14.418;2023-03-30T17:40:19;1.40;;;0.70;;